Time;durP1;ratioP1;P1;durP2;ratioP2;P2;SDS_P1;SDS_P2;PMS_P1;PMS_P2;Temp;Humidity;BMP_temperature;BMP_pressure;BME280_temperature;BME280_humidity;BME280_pressure;Samples;Min_cycle;Max_cycle;Signal;HPM_P1;HPM_P2
2022/08/11 00:02:29;;;;;;;5.93;4.60;;;21.30;95.60;;;21.80;62.24;95099.97;5001219;28;20480;-62
2022/08/11 00:04:56;;;;;;;4.27;3.97;;;21.30;95.70;;;21.76;62.30;95107.56;5006286;28;20541;-62
2022/08/11 00:07:25;;;;;;;4.60;4.30;;;21.30;95.80;;;21.74;62.19;95106.13;5001800;28;20557;-61
2022/08/11 00:09:52;;;;;;;6.37;5.13;;;21.20;95.80;;;21.73;62.46;95107.16;5001633;28;20522;-60
2022/08/11 00:12:20;;;;;;;4.77;4.20;;;21.20;95.90;;;21.70;62.79;95102.19;5000404;28;20554;-61
2022/08/11 00:14:48;;;;;;;4.50;4.20;;;21.20;95.90;;;21.69;62.19;95100.53;5001607;28;20561;-62
2022/08/11 00:17:16;;;;;;;7.73;5.00;;;21.20;96.00;;;21.70;62.65;95099.53;5001479;28;20462;-64
2022/08/11 00:19:45;;;;;;;5.40;4.90;;;21.20;96.30;;;21.72;62.73;95106.31;4997028;28;20517;-63
2022/08/11 00:22:12;;;;;;;4.50;4.20;;;21.20;96.20;;;21.74;62.78;95104.25;4997715;28;20474;-61
2022/08/11 00:24:41;;;;;;;4.90;4.47;;;21.20;96.10;;;21.78;62.69;95108.19;4994675;28;20453;-60
2022/08/11 00:27:09;;;;;;;5.33;4.80;;;21.30;96.30;;;21.80;62.52;95106.13;5000259;28;20573;-60
2022/08/11 00:29:36;;;;;;;4.57;4.27;;;21.30;96.20;;;21.82;62.57;95106.72;4998903;28;20913;-60
2022/08/11 00:32:04;;;;;;;5.57;5.03;;;21.30;96.30;;;21.85;62.56;95102.84;5000159;28;21037;-59
2022/08/11 00:34:34;;;;;;;6.33;4.43;;;21.30;96.10;;;21.86;62.46;95096.47;5002234;28;20468;-62
2022/08/11 00:37:03;;;;;;;5.30;4.63;;;21.40;96.20;;;21.88;62.33;95088.22;4995811;28;20486;-62
2022/08/11 00:39:34;;;;;;;7.73;4.40;;;21.40;96.20;;;21.88;62.66;95082.88;4998277;28;20459;-62
2022/08/11 00:42:19;;;;;;;7.83;4.70;;;21.40;96.10;;;21.89;62.57;95084.50;4997310;28;20475;-60
2022/08/11 00:44:59;;;;;;;4.97;4.47;;;21.40;96.20;;;21.87;62.56;95097.28;5001770;28;20457;-60
2022/08/11 00:47:38;;;;;;;7.90;5.00;;;21.40;96.10;;;21.87;62.92;95094.59;5000429;28;20477;-62
2022/08/11 00:50:13;;;;;;;5.20;4.80;;;21.40;96.20;;;21.84;62.56;95099.34;5003953;28;20446;-61
2022/08/11 00:53:03;;;;;;;5.60;4.67;;;21.30;96.20;;;21.82;62.81;95090.66;5000550;28;20488;-59
2022/08/11 00:56:15;;;;;;;7.10;4.80;;;21.30;96.30;;;21.78;63.28;95094.81;4992596;28;20458;-58
2022/08/11 00:59:37;;;;;;;4.67;4.27;;;21.30;96.30;;;21.74;63.36;95090.06;5001652;28;20975;-61
2022/08/11 01:02:16;;;;;;;5.30;4.90;;;21.20;96.60;;;21.71;63.11;95087.78;4992719;28;21080;-61
2022/08/11 01:05:23;;;;;;;4.80;4.40;;;21.20;96.50;;;21.68;63.68;95083.66;4995977;28;20520;-62
2022/08/11 01:08:50;;;;;;;4.80;4.50;;;21.20;96.70;;;21.65;63.64;95089.41;4997880;28;20474;-64
2022/08/11 01:11:50;;;;;;;5.07;4.57;;;21.20;96.90;;;21.61;63.57;95086.34;4999169;28;20477;-60
2022/08/11 01:14:51;;;;;;;5.20;4.70;;;21.10;96.70;;;21.58;63.70;95086.75;5000857;28;21033;-60
2022/08/11 01:18:23;;;;;;;4.10;3.90;;;21.10;97.00;;;21.54;64.22;95090.03;5000833;28;20462;-60
2022/08/11 01:21:30;;;;;;;7.33;5.67;;;21.10;97.10;;;21.49;63.92;95086.09;4997483;28;20449;-62
2022/08/11 01:24:52;;;;;;;5.73;5.33;;;21.00;97.10;;;21.45;64.04;95087.47;4968047;28;20904;-61
2022/08/11 01:28:08;;;;;;;7.73;5.10;;;21.00;97.10;;;21.40;63.85;95081.91;4975420;28;20572;-61
2022/08/11 01:31:40;;;;;;;6.10;5.20;;;20.90;97.00;;;21.36;64.73;95075.31;4986774;28;20982;-59
2022/08/11 01:35:00;;;;;;;10.10;4.97;;;20.90;97.30;;;21.33;64.25;95072.22;4998283;28;20547;-62
2022/08/11 01:38:35;;;;;;;4.43;4.13;;;20.90;97.40;;;21.26;64.35;95064.19;4985456;28;20538;-59
2022/08/11 01:45:21;;;;;;;6.90;6.30;;;20.70;97.70;;;21.15;64.89;95062.91;4983053;28;20448;-60
2022/08/11 01:47:56;;;;;;;5.97;5.33;;;20.70;97.80;;;21.10;64.64;95071.56;5004428;28;20985;-60
2022/08/11 01:50:38;;;;;;;5.93;5.00;;;20.70;97.70;;;21.07;65.19;95071.13;5004623;28;20449;-59
2022/08/11 01:53:18;;;;;;;7.13;5.00;;;20.60;98.00;;;21.03;65.12;95070.69;5000699;28;20493;-60
2022/08/11 01:55:56;;;;;;;6.40;5.17;;;20.60;98.40;;;20.99;64.91;95072.13;5004538;28;20441;-59
2022/08/11 01:58:29;;;;;;;7.60;5.50;;;20.50;98.20;;;20.94;64.89;95070.06;5004478;28;20474;-60
2022/08/11 02:01:10;;;;;;;6.77;4.83;;;20.50;98.30;;;20.92;65.33;95068.59;5007182;28;20457;-59
2022/08/11 02:03:45;;;;;;;10.93;4.83;;;20.50;98.40;;;20.90;65.69;95070.66;5001943;28;20465;-59
2022/08/11 02:09:07;;;;;;;8.10;4.73;;;20.40;98.40;;;20.84;65.63;95064.25;4988433;28;20994;-60
2022/08/11 02:11:36;;;;;;;5.10;4.70;;;20.40;98.50;;;20.82;65.52;95068.97;5003507;28;20473;-60
2022/08/11 02:14:39;;;;;;;4.93;4.43;;;20.40;98.60;;;20.80;65.89;95071.00;5004507;28;20493;-59
2022/08/11 02:17:15;;;;;;;5.00;4.60;;;20.30;98.80;;;20.75;65.54;95066.25;5000128;28;21085;-59
2022/08/11 02:25:37;;;;;;;10.93;5.07;;;20.20;98.60;;;20.63;66.10;95072.31;4999524;28;20456;-60
2022/08/11 02:28:18;;;;;;;5.80;5.30;;;20.20;98.80;;;20.58;65.71;95068.38;5003097;28;20556;-59
2022/08/11 02:33:41;;;;;;;7.50;5.70;;;20.10;98.90;;;20.49;65.54;95079.44;4999691;28;20481;-60
2022/08/11 02:36:15;;;;;;;7.03;6.27;;;20.10;98.90;;;20.44;65.74;95076.53;5004774;28;20533;-60
2022/08/11 02:39:00;;;;;;;7.20;6.43;;;20.00;98.90;;;20.39;66.25;95074.47;5001630;28;20798;-60
2022/08/11 02:44:29;;;;;;;6.03;5.07;;;19.90;99.20;;;20.28;66.24;95072.31;5003863;28;20425;-59
2022/08/11 02:47:07;;;;;;;5.57;5.00;;;19.90;99.10;;;20.24;65.92;95072.69;5000628;28;21292;-59
2022/08/11 02:49:53;;;;;;;7.17;6.00;;;19.80;99.20;;;20.20;66.45;95075.94;5000637;28;20532;-59
2022/08/11 02:52:30;;;;;;;10.40;5.77;;;19.80;99.20;;;20.16;66.62;95069.38;5005101;28;20493;-60
2022/08/11 02:55:19;;;;;;;6.87;6.17;;;19.70;99.20;;;20.11;66.67;95067.28;4995106;28;20450;-60
2022/08/11 02:57:51;;;;;;;12.43;6.20;;;19.70;99.30;;;20.06;66.60;95075.88;5002700;28;20561;-63
2022/08/11 03:00:20;;;;;;;6.90;5.80;;;19.70;99.10;;;20.03;66.52;95067.41;5001469;28;20542;-60
2022/08/11 03:03:01;;;;;;;7.30;5.60;;;19.60;99.40;;;19.98;66.85;95067.97;5002052;28;20501;-61
2022/08/11 03:05:50;;;;;;;6.10;5.60;;;19.60;99.60;;;19.93;67.47;95070.41;5001194;28;21054;-61
2022/08/11 03:08:29;;;;;;;9.33;6.17;;;19.50;99.70;;;19.89;66.72;95069.13;4998468;28;20481;-59
2022/08/11 03:17:00;;;;;;;6.07;5.37;;;19.40;99.90;;;19.74;67.52;95081.72;5002634;28;20504;-61
2022/08/11 03:19:33;;;;;;;9.13;6.30;;;19.30;99.90;;;19.70;67.46;95078.59;5002420;28;20450;-61
2022/08/11 03:22:08;;;;;;;7.87;7.20;;;19.30;99.90;;;19.64;67.30;95080.22;5000988;28;21056;-62
2022/08/11 03:25:00;;;;;;;6.43;5.93;;;19.20;99.90;;;19.62;67.79;95074.22;5002049;28;20461;-59
2022/08/11 03:27:46;;;;;;;6.03;5.63;;;19.20;99.90;;;19.60;67.85;95073.59;5001349;28;20496;-59
2022/08/11 03:30:15;;;;;;;6.40;5.43;;;19.20;99.90;;;19.58;67.71;95077.47;5000149;28;20977;-59
2022/08/11 03:35:52;;;;;;;9.90;6.00;;;19.20;99.90;;;19.56;67.91;95072.31;5000521;28;20597;-60
2022/08/11 03:38:20;;;;;;;12.80;6.33;;;19.20;99.90;;;19.56;67.75;95074.97;4999014;28;20437;-59
2022/08/11 03:44:31;;;;;;;8.10;6.03;;;19.20;99.90;;;19.55;68.00;95081.34;4998990;28;20496;-61
2022/08/11 03:47:18;;;;;;;7.60;6.87;;;19.20;99.90;;;19.54;69.04;95082.34;4998961;28;20480;-64
2022/08/11 03:50:10;;;;;;;14.80;6.00;;;19.10;99.90;;;19.51;68.49;95082.75;5004290;28;20834;-60
2022/08/11 03:52:49;;;;;;;8.73;6.80;;;19.10;99.90;;;19.52;68.55;95079.06;4998759;28;20650;-60
2022/08/11 03:55:27;;;;;;;10.10;7.00;;;19.10;99.90;;;19.52;68.26;95079.06;4999059;28;20540;-61
2022/08/11 03:58:36;;;;;;;8.13;5.90;;;19.10;99.90;;;19.53;68.83;95081.53;4996418;28;20784;-61
2022/08/11 04:01:44;;;;;;;7.00;6.40;;;19.10;99.90;;;19.55;68.45;95076.03;5000858;28;20500;-60
2022/08/11 04:05:03;;;;;;;10.93;7.70;;;19.10;99.90;;;19.61;68.66;95077.94;5005866;28;20485;-59
2022/08/11 04:08:20;;;;;;;7.50;6.80;;;19.20;99.90;;;19.67;68.81;95078.97;4996366;28;20477;-60
2022/08/11 04:11:37;;;;;;;11.13;6.93;;;19.20;99.90;;;19.74;68.52;95079.06;4919357;29;21091;-59
2022/08/11 04:18:31;;;;;;;7.20;6.50;;;19.30;99.90;;;19.89;68.58;95085.16;4996403;28;20568;-59
2022/08/11 04:21:21;;;;;;;8.93;5.83;;;19.40;99.90;;;19.96;67.62;95083.38;4985172;28;20661;-60
2022/08/11 04:24:27;;;;;;;11.50;6.20;;;19.50;99.90;;;20.02;67.97;95085.28;5000344;28;20465;-60
2022/08/11 04:27:43;;;;;;;9.97;6.63;;;19.60;99.90;;;20.10;68.31;95086.16;4994204;28;20535;-60
2022/08/11 04:30:13;;;;;;;8.67;5.67;;;19.60;99.90;;;20.18;67.32;95088.69;4995871;28;20466;-60
2022/08/11 04:33:48;;;;;;;10.50;6.90;;;19.70;99.90;;;20.28;68.15;95097.19;4996934;28;20480;-59
2022/08/11 04:40:18;;;;;;;17.97;7.50;;;19.90;99.90;;;20.40;67.24;95098.31;4977528;28;20573;-62
2022/08/11 04:43:36;;;;;;;12.80;7.10;;;20.00;99.90;;;20.50;66.97;95097.13;4998929;28;20485;-60
2022/08/11 04:46:26;;;;;;;11.57;6.37;;;20.00;99.90;;;20.58;66.50;95099.66;4997437;28;20573;-62
2022/08/11 05:02:23;;;;;;;8.33;7.40;;;20.30;99.50;;;20.81;65.47;95099.41;4998512;28;20542;-60
2022/08/11 05:08:49;;;;;;;8.63;7.40;;;20.40;99.50;;;20.85;65.60;95100.66;4997841;28;20468;-59
2022/08/11 05:11:40;;;;;;;11.27;7.80;;;20.40;99.50;;;20.90;65.38;95100.06;4997771;28;20545;-60
2022/08/11 05:36:50;;;;;;;15.13;6.87;;;21.00;98.90;;;21.77;64.02;95095.81;4996479;28;20504;-60
2022/08/11 05:58:40;;;;;;;8.50;7.37;;;22.50;97.40;;;23.33;61.40;95096.25;4997135;28;20465;-61
2022/08/11 06:01:09;;;;;;;8.80;7.73;;;22.70;97.20;;;23.53;61.25;95101.53;5000912;28;20545;-61
2022/08/11 06:04:12;;;;;;;7.17;6.57;;;22.90;97.00;;;23.74;60.31;95097.66;4999333;28;20846;-62
2022/08/11 06:06:24;;;;;;;12.77;7.00;;;23.10;96.70;;;23.97;59.89;95094.44;5002685;28;20466;-59
2022/08/11 06:08:54;;;;;;;8.47;7.60;;;23.30;96.40;;;24.14;59.66;95091.22;4999380;28;20941;-61
2022/08/11 06:11:22;;;;;;;10.67;7.13;;;23.50;96.10;;;24.33;59.75;95089.41;4999409;28;20478;-60
2022/08/11 06:13:49;;;;;;;17.10;6.77;;;23.70;95.80;;;24.48;58.72;95094.44;5000050;28;20497;-58
2022/08/11 06:16:22;;;;;;;8.80;8.00;;;23.80;95.70;;;24.58;59.05;95089.38;5002405;28;20557;-59
2022/08/11 06:18:49;;;;;;;8.93;8.20;;;23.90;95.20;;;24.69;58.66;95086.00;4998122;28;20454;-59
2022/08/11 06:21:17;;;;;;;9.67;7.80;;;24.00;95.10;;;24.81;58.34;95091.44;5000240;28;20901;-60
2022/08/11 06:23:45;;;;;;;8.37;7.60;;;24.10;95.00;;;24.95;57.94;95094.00;5003683;28;21021;-59
2022/08/11 06:26:13;;;;;;;7.60;6.80;;;24.30;94.80;;;25.09;57.70;95086.59;5006333;28;20905;-59
2022/08/11 06:28:44;;;;;;;8.80;7.90;;;24.40;94.60;;;25.23;58.04;95088.88;5000621;28;20802;-60
2022/08/11 06:31:17;;;;;;;6.53;6.10;;;24.50;94.40;;;25.39;57.51;95083.94;5003382;28;20949;-58
2022/08/11 06:33:54;;;;;;;7.47;6.70;;;24.70;94.60;;;25.57;57.60;95077.69;5003787;28;20469;-60
2022/08/11 06:36:27;;;;;;;8.40;6.60;;;24.90;94.20;;;25.76;56.68;95078.47;4999877;28;20474;-59
2022/08/11 06:39:15;;;;;;;7.20;6.60;;;25.10;93.70;;;25.94;56.16;95083.78;5004081;28;20449;-59
2022/08/11 06:41:48;;;;;;;6.93;6.10;;;25.20;93.20;;;26.06;56.23;95086.53;5001466;28;20489;-59
2022/08/11 06:44:25;;;;;;;7.80;5.67;;;25.40;92.70;;;26.19;55.20;95090.91;5002382;28;20985;-58
2022/08/11 06:46:59;;;;;;;7.40;6.70;;;25.50;92.30;;;26.28;55.76;95088.69;5003284;28;20870;-60
2022/08/11 06:52:18;;;;;;;5.40;5.00;;;25.70;92.10;;;26.49;55.00;95095.38;5005650;28;20610;-61
2022/08/11 06:54:53;;;;;;;9.43;6.50;;;25.80;91.70;;;26.59;55.10;95092.91;5003323;28;20504;-62
2022/08/11 07:02:59;;;;;;;5.03;4.80;;;26.10;90.60;;;26.99;53.24;95096.81;4998169;28;20801;-60
2022/08/11 07:05:33;;;;;;;8.70;5.17;;;26.30;90.10;;;27.06;53.11;95092.06;5005276;28;20449;-63
2022/08/11 07:15:43;;;;;;;6.13;5.20;;;26.60;86.80;;;27.38;52.54;95099.78;4952475;28;20843;-59
2022/08/11 07:30:13;;;;;;;5.57;5.10;;;27.50;82.20;;;28.43;49.85;95097.63;5001951;28;20853;-61
2022/08/11 07:32:47;;;;;;;5.10;4.80;;;27.70;80.70;;;28.62;49.28;95094.69;4996803;28;20529;-62
2022/08/11 07:35:18;;;;;;;4.90;4.60;;;27.80;79.30;;;28.77;48.93;95094.09;5000347;28;20553;-61
2022/08/11 07:37:50;;;;;;;4.40;4.00;;;28.00;78.20;;;28.93;47.99;95089.72;5002063;28;20469;-60
2022/08/11 07:40:21;;;;;;;7.30;4.70;;;28.20;77.40;;;29.15;47.63;95092.44;4999184;28;20452;-60
2022/08/11 07:42:49;;;;;;;6.77;4.27;;;28.30;75.60;;;29.37;47.32;95087.03;5000036;28;20993;-59
2022/08/11 07:53:31;;;;;;;6.67;4.03;;;29.00;71.40;;;29.83;45.68;95084.88;5007700;28;20504;-62
2022/08/11 07:56:00;;;;;;;4.80;4.20;;;29.10;70.90;;;29.98;45.29;95084.19;5003705;28;20920;-60
2022/08/11 08:17:56;;;;;;;6.87;4.70;;;30.00;65.50;;;30.90;44.36;95080.56;5000690;28;20448;-62
2022/08/11 08:20:25;;;;;;;4.83;4.40;;;30.20;65.30;;;31.10;43.55;95075.28;4997473;28;20935;-59
2022/08/11 08:22:55;;;;;;;5.37;4.87;;;30.30;65.00;;;31.21;43.16;95067.97;4999191;28;20476;-59
2022/08/11 08:25:25;;;;;;;5.20;4.80;;;30.50;63.70;;;31.30;43.35;95057.44;4998254;28;20962;-61
2022/08/11 08:27:53;;;;;;;4.70;4.30;;;30.60;63.80;;;31.46;42.73;95070.00;4998470;28;20997;-62
2022/08/11 08:33:05;;;;;;;9.87;4.27;;;30.90;62.00;;;31.80;42.40;95072.25;4996697;28;20722;-61
2022/08/11 08:35:32;;;;;;;4.23;3.83;;;31.00;61.60;;;31.98;41.74;95070.13;4997095;28;20699;-58
2022/08/11 08:38:00;;;;;;;4.83;4.33;;;31.30;60.80;;;32.20;41.68;95069.09;4997682;28;20478;-61
2022/08/11 08:40:28;;;;;;;6.33;4.07;;;31.40;59.80;;;32.34;41.09;95070.19;5000510;28;20284;-61
2022/08/11 08:42:57;;;;;;;4.60;4.30;;;31.60;59.20;;;32.52;41.24;95058.72;5001409;28;20284;-60
2022/08/11 08:45:26;;;;;;;5.40;4.27;;;31.80;59.10;;;32.74;41.33;95060.38;5000905;28;20205;-59
2022/08/11 08:47:59;;;;;;;4.70;4.40;;;32.00;59.00;;;32.95;40.41;95063.03;5000310;28;20222;-59
2022/08/11 08:51:32;;;;;;;4.57;4.27;;;32.20;58.30;;;33.18;40.48;95061.59;5000656;28;20206;-58
2022/08/11 08:53:15;;;;;;;4.97;3.63;;;32.40;57.90;;;33.33;39.48;95066.22;4997842;28;20219;-62
2022/08/11 08:55:44;;;;;;;5.00;4.60;;;32.60;56.50;;;33.49;39.16;95065.03;5001993;28;20234;-62
2022/08/11 08:58:11;;;;;;;5.07;4.65;;;32.70;56.50;;;33.71;38.95;95058.38;4998676;28;20364;-58
2022/08/11 09:00:40;;;;;;;5.38;4.68;;;32.90;56.40;;;33.80;38.61;95056.72;4999687;28;20206;-60
2022/08/11 09:03:08;;;;;;;4.43;4.13;;;33.10;55.10;;;33.82;38.18;95057.25;4997426;28;20227;-63
2022/08/11 09:05:35;;;;;;;4.18;3.97;;;33.10;54.60;;;33.89;38.47;95044.09;4994813;28;20281;-62
2022/08/11 09:08:02;;;;;;;8.15;3.78;;;33.20;54.50;;;34.05;37.27;95052.19;5001543;28;20284;-61
2022/08/11 09:10:30;;;;;;;4.10;3.80;;;33.30;53.70;;;34.13;37.18;95057.06;5000518;28;20198;-61
2022/08/11 09:12:59;;;;;;;4.28;3.97;;;33.40;53.00;;;34.15;37.46;95057.56;4997876;28;20843;-61
2022/08/11 09:15:27;;;;;;;5.18;4.18;;;33.40;52.70;;;34.23;37.27;95050.69;5001052;28;20234;-64
2022/08/11 09:18:02;;;;;;;4.80;4.50;;;33.50;52.60;;;34.34;37.01;95054.97;4998186;28;20222;-64
2022/08/11 09:20:32;;;;;;;6.80;4.57;;;33.60;52.50;;;34.52;36.45;95045.28;4997922;28;20277;-61
2022/08/11 09:28:35;;;;;;;6.95;4.43;;;34.10;51.20;;;35.04;36.34;95044.75;5000915;28;20305;-60
2022/08/11 09:31:02;;;;;;;4.78;4.28;;;34.30;51.10;;;35.12;35.48;95044.13;5000675;28;20221;-63
2022/08/11 09:33:30;;;;;;;5.65;4.65;;;34.40;50.70;;;35.18;35.85;95045.69;4999486;28;20616;-65
2022/08/11 09:35:57;;;;;;;5.45;5.05;;;34.50;50.30;;;35.23;35.49;95044.81;4997114;28;20233;-61
2022/08/11 09:41:11;;;;;;;6.28;5.78;;;34.50;50.00;;;35.25;36.07;95046.16;4996129;28;20204;-63
2022/08/11 09:46:28;;;;;;;5.32;4.93;;;34.50;49.30;;;35.23;35.09;95036.59;5000685;28;20224;-63
2022/08/11 09:48:58;;;;;;;5.70;5.25;;;34.60;49.40;;;35.24;34.69;95036.31;4999147;28;20562;-60
2022/08/11 09:51:26;;;;;;;8.82;5.18;;;34.60;49.30;;;35.14;35.14;95025.50;5002007;28;20222;-65
2022/08/11 09:53:53;;;;;;;9.10;5.60;;;34.50;48.40;;;35.05;35.50;95030.81;5005679;28;20201;-64
2022/08/11 09:59:09;;;;;;;5.75;5.18;;;34.30;48.70;;;34.82;35.03;95021.50;5001525;28;20197;-61
2022/08/11 10:01:40;;;;;;;9.15;6.22;;;34.20;48.70;;;34.83;35.04;95020.41;5002766;28;20650;-64
2022/08/11 10:04:16;;;;;;;7.10;5.65;;;34.10;48.90;;;34.87;34.84;95005.03;5000575;28;20272;-63
2022/08/11 10:07:03;;;;;;;7.03;5.30;;;34.10;48.70;;;34.94;35.05;95016.44;5002216;28;20233;-60
2022/08/11 10:09:40;;;;;;;4.65;4.35;;;34.20;48.70;;;34.91;34.39;95008.03;5003183;28;20206;-60
2022/08/11 10:12:11;;;;;;;5.00;4.60;;;34.20;47.80;;;34.90;34.04;95017.31;5002191;28;20230;-63
2022/08/11 10:17:33;;;;;;;6.32;3.83;;;34.20;47.70;;;34.79;33.43;95000.22;4999798;28;20628;-59
2022/08/11 10:20:03;;;;;;;4.30;3.97;;;34.00;47.40;;;34.80;34.19;95007.31;5004110;28;20221;-59
2022/08/11 10:28:00;;;;;;;5.28;4.07;;;34.20;46.50;;;34.91;33.73;95006.09;4972554;28;20234;-59
2022/08/11 10:36:00;;;;;;;7.88;3.95;;;34.10;45.70;;;34.93;32.72;95005.78;5001833;28;20623;-64
2022/08/11 10:38:28;;;;;;;3.22;3.03;;;34.20;45.70;;;34.94;33.26;95010.16;5003337;28;20550;-64
2022/08/11 10:43:43;;;;;;;5.45;3.58;;;34.20;45.40;;;34.96;32.56;94997.81;5003391;28;20209;-60
2022/08/11 10:48:59;;;;;;;4.22;3.80;;;34.20;44.80;;;34.93;32.38;95001.13;5001138;28;20686;-64
2022/08/11 10:59:42;;;;;;;9.15;4.22;;;33.90;45.30;;;34.62;33.06;94981.50;5003382;28;20205;-65
2022/08/11 11:02:14;;;;;;;5.32;3.95;;;33.90;45.70;;;34.57;32.84;94968.72;5001470;28;20214;-58
2022/08/11 11:04:59;;;;;;;4.78;4.38;;;33.80;45.70;;;34.57;33.07;94984.31;4999589;28;20193;-61
2022/08/11 11:07:37;;;;;;;8.25;4.30;;;33.80;45.80;;;34.53;33.21;94967.66;5002197;28;20249;-60
2022/08/11 11:10:07;;;;;;;9.10;4.78;;;33.80;45.60;;;34.53;33.22;94969.59;5003794;28;20210;-65
2022/08/11 11:18:19;;;;;;;4.57;4.28;;;33.70;46.30;;;34.39;33.37;94958.53;5003252;28;20225;-63
2022/08/11 11:20:50;;;;;;;3.72;3.42;;;33.60;46.10;;;34.37;33.33;94958.03;5002056;28;20198;-59
2022/08/11 11:23:20;;;;;;;7.55;4.28;;;33.60;46.20;;;34.30;33.17;94963.78;4999897;28;20225;-64
2022/08/11 11:26:31;;;;;;;4.82;4.53;;;33.60;46.10;;;34.17;33.80;94959.81;4998656;28;20294;-65
2022/08/11 11:29:40;;;;;;;5.28;4.78;;;33.50;46.00;;;34.00;33.67;94960.22;4999000;28;20633;-59
2022/08/11 11:32:19;;;;;;;6.68;5.25;;;33.30;46.10;;;33.90;34.06;94952.94;5001919;28;20252;-63
2022/08/11 11:35:34;;;;;;;5.20;4.80;;;33.20;46.40;;;33.79;34.33;94953.31;4999634;28;20202;-58
2022/08/11 11:38:01;;;;;;;5.22;4.93;;;33.10;46.80;;;33.67;34.84;94954.47;5002289;28;20214;-60
2022/08/11 11:40:29;;;;;;;7.03;5.95;;;33.00;47.00;;;33.57;34.28;94952.63;5001101;28;20197;-61
2022/08/11 11:42:57;;;;;;;5.00;4.60;;;32.90;46.90;;;33.49;34.16;94953.22;5000901;28;20284;-64
2022/08/11 11:45:25;;;;;;;5.68;4.53;;;32.80;46.90;;;33.42;34.72;94952.72;4999983;28;20198;-66
2022/08/11 11:47:54;;;;;;;4.75;4.28;;;32.80;46.90;;;33.33;34.68;94951.69;4999460;28;20280;-65
2022/08/11 11:50:28;;;;;;;8.38;5.18;;;32.60;46.80;;;33.25;34.37;94950.38;5001753;28;20260;-60
2022/08/11 11:52:55;;;;;;;5.88;4.75;;;32.60;47.00;;;33.09;34.72;94946.88;5001567;28;20226;-64
2022/08/11 11:55:24;;;;;;;6.72;5.05;;;32.40;47.00;;;32.93;34.92;94937.16;5001439;28;20245;-61
2022/08/11 12:03:22;;;;;;;5.13;4.22;;;32.10;47.50;;;32.62;34.81;94945.41;5000996;28;20193;-60
2022/08/11 12:05:51;;;;;;;8.18;4.20;;;32.00;47.20;;;32.51;35.31;94947.34;5001656;28;20202;-64
2022/08/11 12:08:18;;;;;;;6.95;3.72;;;31.90;47.60;;;32.47;35.61;94941.66;5002543;28;20542;-65
2022/08/11 12:10:48;;;;;;;4.50;4.10;;;31.80;47.90;;;32.47;35.49;94936.22;5003350;28;20202;-60
2022/08/11 12:16:02;;;;;;;4.40;3.88;;;31.70;47.50;;;32.39;34.92;94920.41;5001174;28;20216;-65
2022/08/11 12:18:32;;;;;;;4.80;4.40;;;31.70;47.60;;;32.36;34.76;94934.59;5000616;28;20196;-61
2022/08/11 12:21:02;;;;;;;3.63;3.33;;;31.60;46.90;;;32.32;35.35;94917.19;5000411;28;20812;-64
2022/08/11 12:29:05;;;;;;;10.88;3.50;;;31.60;47.40;;;32.26;35.62;94908.22;4998801;28;20254;-63
2022/08/11 12:31:33;;;;;;;4.82;3.88;;;31.50;47.90;;;32.19;35.61;94920.47;4999590;28;20226;-59
2022/08/11 12:34:03;;;;;;;3.70;3.50;;;31.50;48.50;;;32.12;35.81;94928.94;5000762;28;20194;-59
2022/08/11 12:36:35;;;;;;;12.48;3.80;;;31.50;48.80;;;31.97;35.98;94925.09;5000420;28;20257;-65
2022/08/11 12:39:03;;;;;;;5.25;3.25;;;31.40;49.10;;;31.83;35.90;94940.34;5000995;28;20561;-62
2022/08/11 12:47:02;;;;;;;3.95;3.65;;;31.00;49.80;;;31.49;36.57;94940.03;4998129;28;20594;-63
2022/08/11 12:52:20;;;;;;;5.53;3.20;;;30.70;50.40;;;31.10;38.20;94927.72;4999964;28;20212;-63
2022/08/11 12:54:57;;;;;;;3.87;2.90;;;30.50;50.90;;;30.91;38.77;94938.25;5000123;28;20205;-60
2022/08/11 13:05:43;;;;;;;2.77;2.67;;;29.90;52.00;;;30.35;38.56;94926.03;5000321;28;20213;-59
2022/08/11 13:08:12;;;;;;;2.93;2.77;;;29.80;51.60;;;30.17;38.66;94934.59;5000964;28;20279;-65
2022/08/11 13:13:24;;;;;;;7.67;4.37;;;29.40;52.90;;;29.84;39.44;94936.56;5000713;28;20204;-60
2022/08/11 13:15:52;;;;;;;3.87;3.53;;;29.20;53.20;;;29.78;40.23;94927.53;4998913;28;20809;-63
2022/08/11 13:18:21;;;;;;;5.70;3.20;;;29.20;53.40;;;29.62;40.07;94929.31;5000087;28;20222;-64
2022/08/11 13:20:49;;;;;;;7.73;4.60;;;29.00;53.90;;;29.52;40.77;94926.50;4999695;28;20886;-63
2022/08/11 13:23:17;;;;;;;4.03;3.20;;;28.90;54.10;;;29.50;40.98;94931.38;5000615;28;20465;-64
2022/08/11 13:25:45;;;;;;;3.57;3.37;;;28.80;54.30;;;29.50;40.17;94915.09;5004854;28;20813;-65
2022/08/11 13:28:12;;;;;;;6.73;4.53;;;28.80;54.20;;;29.46;40.07;94919.41;5004468;28;20513;-64
2022/08/11 13:33:24;;;;;;;2.93;2.83;;;28.80;53.80;;;29.32;39.96;94917.09;5000154;28;20198;-59
2022/08/11 13:35:54;;;;;;;3.70;3.50;;;28.70;53.70;;;29.29;40.16;94914.91;5001577;28;20484;-64
2022/08/11 13:38:24;;;;;;;4.20;3.80;;;28.70;53.90;;;29.30;40.68;94908.41;5001274;28;20194;-58
2022/08/11 13:40:52;;;;;;;3.40;3.10;;;28.70;54.10;;;29.32;39.88;94906.25;5003100;28;20449;-62
2022/08/11 13:43:19;;;;;;;3.83;3.60;;;28.60;53.80;;;29.32;40.57;94908.97;5004782;28;20548;-65
2022/08/11 13:45:47;;;;;;;4.27;3.20;;;28.70;54.00;;;29.35;39.52;94904.13;5002277;28;20445;-61
2022/08/11 13:48:15;;;;;;;3.03;2.93;;;28.70;53.70;;;29.36;40.17;94897.59;5005500;28;20464;-64
2022/08/11 13:53:30;;;;;;;7.07;4.73;;;28.70;52.90;;;29.23;39.79;94905.09;5008247;28;20437;-64
2022/08/11 13:55:58;;;;;;;11.07;5.27;;;28.60;53.00;;;29.21;39.78;94901.81;5005200;28;20481;-61
2022/08/11 13:58:25;;;;;;;3.33;3.10;;;28.60;52.90;;;29.20;40.00;94904.78;4999705;28;20454;-64
2022/08/11 14:00:53;;;;;;;4.53;3.73;;;28.60;53.00;;;29.16;39.06;94896.34;5005668;28;20444;-62
2022/08/11 14:03:24;;;;;;;3.77;2.80;;;28.50;52.90;;;29.15;39.24;94889.28;5000652;28;20465;-60
2022/08/11 14:05:55;;;;;;;4.30;4.00;;;28.50;52.90;;;29.19;39.78;94881.44;5003860;28;20595;-59
2022/08/11 14:08:26;;;;;;;7.20;3.33;;;28.50;52.90;;;29.22;39.15;94892.63;5003993;28;20441;-60
2022/08/11 14:13:42;;;;;;;2.83;2.73;;;28.50;52.00;;;29.01;39.37;94896.19;5003206;28;20797;-66
